createdAt,value
2019-02-26T00:00:33.445Z,100691.59
2019-02-26T00:01:28.712Z,100694.57
2019-02-26T00:02:06.249Z,100698.13
2019-02-26T00:03:04.642Z,100702.98
2019-02-26T00:03:45.191Z,100698.42
2019-02-26T00:04:25.483Z,100703.44
2019-02-26T00:05:08.279Z,100702.48
2019-02-26T00:05:56.839Z,100706.64
2019-02-26T00:06:47.200Z,100707.33
2019-02-26T00:07:28.143Z,100707.02
2019-02-26T00:08:06.192Z,100710.12
2019-02-26T00:08:49.262Z,100712.98
2019-02-26T00:09:28.370Z,100710.66
2019-02-26T00:11:03.815Z,100710.16
2019-02-26T00:11:44.866Z,100716.74
2019-02-26T00:12:44.931Z,100714.72
2019-02-26T00:13:27.181Z,100716.47
2019-02-26T00:14:04.589Z,100712.58
2019-02-26T00:14:50.098Z,100712.58
2019-02-26T00:15:35.532Z,100722.16
2019-02-26T00:16:15.336Z,100713.20
2019-02-26T00:16:51.610Z,100723.48
2019-02-26T00:17:38.593Z,100722.44
2019-02-26T00:18:16.808Z,100724.09
2019-02-26T00:19:57.790Z,100737.98
2019-02-26T00:20:37.400Z,100737.98
2019-02-26T00:21:26.425Z,100729.99
2019-02-26T00:22:03.047Z,100742.06
2019-02-26T00:22:49.386Z,100735.97
2019-02-26T00:23:31.658Z,100744.61
2019-02-26T00:24:30.854Z,100744.61
2019-02-26T00:25:10.451Z,100745.45
2019-02-26T00:25:50.481Z,100746.80
2019-02-26T00:26:47.639Z,100745.45
2019-02-26T00:27:30.610Z,100744.07
2019-02-26T00:28:15.387Z,100736.81
2019-02-26T00:30:01.442Z,100751.03
2019-02-26T00:30:38.694Z,100752.06
2019-02-26T00:31:23.821Z,100748.52
2019-02-26T00:32:02.729Z,100754.50
2019-02-26T00:32:48.800Z,100754.50
2019-02-26T00:33:28.980Z,100746.18
2019-02-26T00:34:14.009Z,100758.81
2019-02-26T00:35:01.775Z,100758.81
2019-02-26T00:35:48.133Z,100757.53
2019-02-26T00:36:27.191Z,100759.75
2019-02-26T00:37:09.794Z,100761.35
2019-02-26T00:37:53.464Z,100762.92
2019-02-26T00:38:33.015Z,100762.92
2019-02-26T00:39:16.056Z,100757.53
2019-02-26T00:40:04.135Z,100770.12
2019-02-26T00:40:43.217Z,100768.12
2019-02-26T00:41:31.865Z,100770.49
2019-02-26T00:42:12.364Z,100768.84
2019-02-26T00:43:02.551Z,100765.34
2019-02-26T00:43:53.166Z,100768.52
2019-02-26T00:44:37.398Z,100773.88
2019-02-26T00:45:26.938Z,100767.05
2019-02-26T00:46:32.433Z,100769.50
2019-02-26T00:47:15.546Z,100770.55
2019-02-26T00:47:54.779Z,100776.69
2019-02-26T00:48:38.853Z,100769.37
2019-02-26T00:49:15.319Z,100769.37
2019-02-26T00:49:59.320Z,100771.75
2019-02-26T00:50:37.288Z,100774.12
2019-02-26T00:51:27.706Z,100775.39
2019-02-26T00:52:06.393Z,100767.20
2019-02-26T00:52:46.820Z,100770.44
2019-02-26T00:53:25.853Z,100770.41
2019-02-26T00:54:07.336Z,100776.23
2019-02-26T00:54:47.149Z,100775.63
2019-02-26T00:55:48.641Z,100783.90
2019-02-26T00:57:06.445Z,100777.35
2019-02-26T00:57:51.852Z,100782.42
2019-02-26T00:58:32.108Z,100782.42
2019-02-26T00:59:11.055Z,100784.23
2019-02-26T00:59:48.266Z,100775.83
2019-02-26T01:00:28.516Z,100775.83
2019-02-26T01:01:12.146Z,100787.59
2019-02-26T01:01:59.413Z,100787.59
2019-02-26T01:02:58.079Z,100787.59
2019-02-26T01:03:58.405Z,100787.59
2019-02-26T01:04:39.089Z,100778.23
2019-02-26T01:05:18.539Z,100796.63
2019-02-26T01:06:01.615Z,100797.63
2019-02-26T01:06:43.701Z,100797.63
2019-02-26T01:07:36.530Z,100800.04
2019-02-26T01:08:19.621Z,100800.04
2019-02-26T01:09:03.658Z,100795.27
2019-02-26T01:10:14.001Z,100804.49
2019-02-26T01:10:56.965Z,100804.49
2019-02-26T01:11:34.061Z,100796.06
2019-02-26T01:12:18.221Z,100801.58
2019-02-26T01:13:03.029Z,100800.94
2019-02-26T01:13:40.871Z,100800.94
2019-02-26T01:14:18.654Z,100792.50
2019-02-26T01:16:18.425Z,100806.41
2019-02-26T01:18:08.346Z,100809.81
2019-02-26T01:18:46.676Z,100801.89
2019-02-26T01:19:34.169Z,100807.23
2019-02-26T01:20:14.359Z,100810.61
2019-02-26T01:20:52.673Z,100813.46
2019-02-26T01:21:34.102Z,100807.98
2019-02-26T01:22:14.361Z,100812.60
2019-02-26T01:22:53.185Z,100810.84
2019-02-26T01:23:43.796Z,100816.25
2019-02-26T01:24:27.975Z,100816.55
2019-02-26T01:25:07.877Z,100817.52
2019-02-26T01:25:59.849Z,100821.08
2019-02-26T01:26:43.499Z,100822.33
2019-02-26T01:27:22.400Z,100817.66
2019-02-26T01:28:00.620Z,100815.95
2019-02-26T01:28:46.177Z,100818.83
2019-02-26T01:29:33.016Z,100821.42
2019-02-26T01:30:18.140Z,100822.28
2019-02-26T01:30:56.159Z,100818.10
2019-02-26T01:31:33.955Z,100820.70
2019-02-26T01:32:26.468Z,100822.24
2019-02-26T01:33:08.042Z,100816.46
2019-02-26T01:33:55.326Z,100817.09
2019-02-26T01:34:33.169Z,100819.68
2019-02-26T01:35:13.072Z,100814.11
2019-02-26T01:35:56.168Z,100820.02
2019-02-26T01:37:05.950Z,100821.81
2019-02-26T01:37:51.318Z,100827.91
2019-02-26T01:38:29.108Z,100827.48
2019-02-26T01:39:13.431Z,100830.19
2019-02-26T01:39:53.925Z,100833.67
2019-02-26T01:40:57.819Z,100832.19
2019-02-26T01:41:46.079Z,100833.70
2019-02-26T01:42:34.823Z,100835.17
2019-02-26T01:43:18.640Z,100836.43
2019-02-26T01:45:05.616Z,100839.44
2019-02-26T01:45:56.787Z,100840.73
2019-02-26T01:46:43.785Z,100839.62
2019-02-26T01:47:54.464Z,100841.53
2019-02-26T01:48:57.449Z,100839.24
2019-02-26T01:49:53.387Z,100840.73
2019-02-26T01:50:33.475Z,100844.67
2019-02-26T01:51:52.242Z,100843.01
2019-02-26T01:54:51.370Z,100847.50
2019-02-26T01:55:42.099Z,100850.34
2019-02-26T01:56:42.449Z,100852.55
2019-02-26T01:57:27.184Z,100856.78
2019-02-26T01:58:09.855Z,100857.37
2019-02-26T01:59:09.190Z,100855.56
2019-02-26T01:59:53.205Z,100858.66
2019-02-26T02:00:38.684Z,100858.20
2019-02-26T02:01:21.391Z,100860.61
2019-02-26T02:03:02.327Z,100856.14
2019-02-26T02:04:44.628Z,100862.12
2019-02-26T02:05:33.826Z,100856.92
2019-02-26T02:07:04.236Z,100856.32
2019-02-26T02:08:18.487Z,100861.37
2019-02-26T02:10:07.347Z,100858.70
2019-02-26T02:10:56.294Z,100862.55
2019-02-26T02:11:43.149Z,100863.91
2019-02-26T02:13:02.877Z,100861.67
2019-02-26T02:13:41.374Z,100858.63
2019-02-26T02:15:20.827Z,100861.83
2019-02-26T02:16:04.907Z,100860.95
2019-02-26T02:16:55.928Z,100859.83
2019-02-26T02:17:43.568Z,100858.47
2019-02-26T02:18:23.606Z,100859.67
2019-02-26T02:19:02.974Z,100861.13
2019-02-26T02:19:41.720Z,100859.61
2019-02-26T02:20:30.157Z,100860.84
2019-02-26T02:21:33.189Z,100863.08
2019-02-26T02:22:19.145Z,100854.80
2019-02-26T02:22:58.164Z,100864.64
2019-02-26T02:23:44.254Z,100858.69
2019-02-26T02:24:31.433Z,100860.61
2019-02-26T02:25:24.682Z,100855.59
2019-02-26T02:26:04.462Z,100856.31
2019-02-26T02:27:22.582Z,100855.36
2019-02-26T02:28:26.313Z,100861.28
2019-02-26T02:29:34.254Z,100866.47
2019-02-26T02:30:22.386Z,100865.67
2019-02-26T02:30:58.367Z,100866.66
2019-02-26T02:31:58.491Z,100869.46
2019-02-26T02:32:40.159Z,100868.17
2019-02-26T02:33:29.356Z,100864.17
2019-02-26T02:34:12.159Z,100861.16
2019-02-26T02:34:53.248Z,100872.03
2019-02-26T02:37:27.467Z,100860.50
2019-02-26T02:38:04.987Z,100860.43
2019-02-26T02:38:41.294Z,100864.67
2019-02-26T02:39:26.423Z,100863.87
2019-02-26T02:40:01.808Z,100864.27
2019-02-26T02:40:40.278Z,100864.27
2019-02-26T02:41:17.646Z,100866.83
2019-02-26T02:41:56.267Z,100868.66
2019-02-26T02:42:37.523Z,100869.48
2019-02-26T02:43:18.069Z,100865.17
2019-02-26T02:43:55.683Z,100854.20
2019-02-26T02:44:32.103Z,100858.34
2019-02-26T02:45:20.111Z,100860.17
2019-02-26T02:45:55.744Z,100859.44
2019-02-26T02:46:34.131Z,100860.66
2019-02-26T02:47:11.331Z,100856.72
2019-02-26T02:47:54.748Z,100857.66
2019-02-26T02:48:28.856Z,100855.41
2019-02-26T02:49:09.824Z,100857.10
2019-02-26T02:49:50.372Z,100854.46
2019-02-26T02:50:47.057Z,100851.08
2019-02-26T02:51:25.757Z,100853.39
2019-02-26T02:52:04.148Z,100853.44
2019-02-26T02:52:41.504Z,100850.80
2019-02-26T02:53:21.044Z,100851.97
2019-02-26T02:54:01.035Z,100846.00
2019-02-26T02:54:38.597Z,100849.33
2019-02-26T02:55:19.314Z,100854.63
2019-02-26T02:55:55.958Z,100853.33
2019-02-26T02:56:34.068Z,100855.39
2019-02-26T02:57:11.947Z,100854.27
2019-02-26T02:57:50.205Z,100850.18
2019-02-26T02:58:26.177Z,100853.41
2019-02-26T02:59:03.458Z,100854.67
2019-02-26T02:59:42.264Z,100852.11
2019-02-26T03:00:39.258Z,100848.72
2019-02-26T03:01:19.566Z,100847.36
2019-02-26T03:01:57.107Z,100852.81
2019-02-26T03:02:37.677Z,100844.86
2019-02-26T03:03:11.958Z,100847.39
2019-02-26T03:03:50.301Z,100852.31
2019-02-26T03:04:31.185Z,100852.45
2019-02-26T03:05:06.838Z,100852.70
2019-02-26T03:05:47.410Z,100852.04
2019-02-26T03:06:25.010Z,100852.27
2019-02-26T03:07:03.106Z,100854.59
2019-02-26T03:07:42.065Z,100852.66
2019-02-26T03:08:19.481Z,100855.75
2019-02-26T03:08:56.473Z,100857.72
2019-02-26T03:09:35.374Z,100852.26
2019-02-26T03:10:13.005Z,100851.56
2019-02-26T03:10:49.246Z,100851.00
2019-02-26T03:11:25.941Z,100846.44
2019-02-26T03:12:05.564Z,100850.09
2019-02-26T03:12:44.023Z,100853.28
2019-02-26T03:13:22.899Z,100851.80
2019-02-26T03:13:59.947Z,100858.74
2019-02-26T03:14:39.182Z,100850.33
2019-02-26T03:15:17.713Z,100851.36
2019-02-26T03:15:56.647Z,100849.76
2019-02-26T03:16:33.503Z,100853.28
2019-02-26T03:17:11.074Z,100852.72
2019-02-26T03:17:47.878Z,100852.55
2019-02-26T03:18:25.832Z,100854.94
2019-02-26T03:19:04.771Z,100857.23
2019-02-26T03:19:45.299Z,100860.19
2019-02-26T03:20:24.720Z,100858.13
2019-02-26T03:21:04.352Z,100858.52
2019-02-26T03:21:42.142Z,100858.52
2019-02-26T03:22:21.609Z,100855.98
2019-02-26T03:22:57.362Z,100851.09
2019-02-26T03:23:37.101Z,100855.55
2019-02-26T03:24:13.165Z,100853.63
2019-02-26T03:24:51.277Z,100856.51
2019-02-26T03:25:30.240Z,100854.24
2019-02-26T03:26:09.964Z,100857.00
2019-02-26T03:26:45.121Z,100857.13
2019-02-26T03:27:27.793Z,100859.28
2019-02-26T03:28:04.065Z,100854.39
2019-02-26T03:28:42.185Z,100852.44
2019-02-26T03:29:18.603Z,100849.20
2019-02-26T03:29:56.273Z,100847.13
2019-02-26T03:30:40.206Z,100852.98
2019-02-26T03:31:17.051Z,100854.24
2019-02-26T03:31:55.458Z,100846.98
2019-02-26T03:32:36.070Z,100850.63
2019-02-26T03:33:11.185Z,100847.47
2019-02-26T03:33:47.425Z,100848.37
2019-02-26T03:34:25.262Z,100847.80
2019-02-26T03:35:07.146Z,100846.00
2019-02-26T03:35:41.432Z,100841.46
2019-02-26T03:36:19.225Z,100839.91
2019-02-26T03:36:57.816Z,100836.97
2019-02-26T03:37:36.581Z,100838.48
2019-02-26T03:38:15.001Z,100838.50
2019-02-26T03:38:54.813Z,100827.70
2019-02-26T03:39:39.617Z,100836.27
2019-02-26T03:40:16.447Z,100835.83
2019-02-26T03:40:55.498Z,100831.73
2019-02-26T03:41:31.897Z,100835.05
2019-02-26T03:42:10.472Z,100831.74
2019-02-26T03:42:47.639Z,100828.02
2019-02-26T03:43:25.383Z,100827.45
2019-02-26T03:44:08.217Z,100839.30
2019-02-26T03:44:46.181Z,100831.09
2019-02-26T03:45:29.849Z,100833.60
2019-02-26T03:46:09.747Z,100834.28
2019-02-26T03:46:47.794Z,100830.98
2019-02-26T03:47:24.284Z,100831.45
2019-02-26T03:48:01.475Z,100834.09
2019-02-26T03:48:38.008Z,100831.81
2019-02-26T03:49:16.967Z,100834.09
2019-02-26T03:49:55.252Z,100830.22
2019-02-26T03:50:31.499Z,100826.05
2019-02-26T03:51:08.352Z,100824.53
2019-02-26T03:51:45.413Z,100824.33
2019-02-26T03:52:21.812Z,100823.20
2019-02-26T03:52:59.001Z,100819.78
2019-02-26T03:53:48.693Z,100817.50
2019-02-26T03:54:25.597Z,100820.23
2019-02-26T03:55:03.540Z,100815.56
2019-02-26T03:55:42.028Z,100820.45
2019-02-26T03:56:20.565Z,100820.69
2019-02-26T03:56:57.421Z,100815.45
2019-02-26T03:57:33.840Z,100817.61
2019-02-26T03:58:10.179Z,100811.80
2019-02-26T03:58:46.832Z,100813.39
2019-02-26T03:59:24.508Z,100810.66
2019-02-26T04:00:05.599Z,100808.38
2019-02-26T04:00:41.704Z,100808.15
2019-02-26T04:01:19.411Z,100806.13
2019-02-26T04:01:57.098Z,100805.66
2019-02-26T04:02:33.220Z,100804.97
2019-02-26T04:03:12.477Z,100806.34
2019-02-26T04:03:50.870Z,100805.20
2019-02-26T04:04:28.884Z,100801.56
2019-02-26T04:05:08.955Z,100803.37
2019-02-26T04:05:45.963Z,100795.75
2019-02-26T04:06:23.159Z,100799.28
2019-02-26T04:07:01.425Z,100796.67
2019-02-26T04:07:38.988Z,100798.60
2019-02-26T04:08:16.678Z,100794.97
2019-02-26T04:08:57.465Z,100790.38
2019-02-26T04:09:39.063Z,100798.02
2019-02-26T04:10:14.688Z,100786.97
2019-02-26T04:10:53.626Z,100788.45
2019-02-26T04:11:29.751Z,100790.38
2019-02-26T04:12:08.392Z,100786.28
2019-02-26T04:12:48.614Z,100782.89
2019-02-26T04:13:25.986Z,100780.16
2019-02-26T04:14:03.931Z,100783.34
2019-02-26T04:14:40.767Z,100780.15
2019-02-26T04:15:18.197Z,100782.77
2019-02-26T04:15:57.102Z,100778.31
2019-02-26T04:16:35.279Z,100775.84
2019-02-26T04:17:11.280Z,100777.66
2019-02-26T04:17:49.881Z,100775.59
2019-02-26T04:18:28.774Z,100774.25
2019-02-26T04:19:08.614Z,100776.28
2019-02-26T04:19:44.488Z,100769.55
2019-02-26T04:20:21.074Z,100763.04
2019-02-26T04:21:03.164Z,100768.52
2019-02-26T04:22:12.483Z,100762.34
2019-02-26T04:22:49.923Z,100758.47
2019-02-26T04:23:25.182Z,100764.41
2019-02-26T04:24:03.522Z,100755.28
2019-02-26T04:24:40.361Z,100755.39
2019-02-26T04:25:59.875Z,100751.73
2019-02-26T04:27:10.992Z,100749.80
2019-02-26T04:27:59.920Z,100752.53
2019-02-26T04:28:47.577Z,100743.33
2019-02-26T04:29:49.355Z,100744.47
2019-02-26T04:31:05.420Z,100742.09
2019-02-26T04:32:20.372Z,100738.91
2019-02-26T04:33:32.718Z,100731.74
2019-02-26T04:34:26.206Z,100731.95
2019-02-26T04:35:47.686Z,100735.28
2019-02-26T04:36:34.356Z,100734.36
2019-02-26T04:38:03.461Z,100728.44
2019-02-26T04:39:34.490Z,100732.20
2019-02-26T04:40:47.134Z,100724.23
2019-02-26T04:41:48.710Z,100723.22
2019-02-26T04:42:53.663Z,100723.44
2019-02-26T04:44:26.240Z,100719.12
2019-02-26T04:45:48.236Z,100712.73
2019-02-26T04:46:42.927Z,100710.67
2019-02-26T04:47:27.029Z,100710.23
2019-02-26T04:48:03.616Z,100706.58
2019-02-26T04:48:41.468Z,100702.83
2019-02-26T04:49:17.760Z,100704.30
2019-02-26T04:49:57.293Z,100703.83
2019-02-26T04:50:35.769Z,100700.42
2019-02-26T04:51:12.905Z,100696.99
2019-02-26T04:51:50.585Z,100699.95
2019-02-26T04:52:29.626Z,100697.13
2019-02-26T04:53:28.724Z,100694.73
2019-02-26T04:54:05.513Z,100691.30
2019-02-26T04:54:42.615Z,100695.63
2019-02-26T04:55:20.756Z,100691.08
2019-02-26T04:55:59.844Z,100689.46
2019-02-26T04:56:39.567Z,100688.55
2019-02-26T04:57:14.719Z,100686.60
2019-02-26T04:57:53.961Z,100680.78
2019-02-26T04:58:31.178Z,100680.66
2019-02-26T04:59:09.781Z,100676.46
2019-02-26T04:59:45.516Z,100680.09
2019-02-26T05:00:26.173Z,100674.17
2019-02-26T05:01:04.237Z,100670.73
2019-02-26T05:01:40.893Z,100671.75
2019-02-26T05:02:20.549Z,100670.04
2019-02-26T05:02:56.798Z,100672.77
2019-02-26T05:03:33.654Z,100662.18
2019-02-26T05:04:10.031Z,100667.66
2019-02-26T05:04:46.489Z,100667.17
2019-02-26T05:05:25.862Z,100666.38
2019-02-26T05:06:05.310Z,100670.48
2019-02-26T05:06:42.776Z,100661.80
2019-02-26T05:07:19.637Z,100656.55
2019-02-26T05:07:59.001Z,100653.33
2019-02-26T05:08:37.598Z,100655.17
2019-02-26T05:09:15.656Z,100653.33
2019-02-26T05:09:53.854Z,100657.33
2019-02-26T05:10:34.398Z,100648.12
2019-02-26T05:11:14.884Z,100653.63
2019-02-26T05:11:57.139Z,100644.98
2019-02-26T05:12:37.296Z,100647.53
2019-02-26T05:13:15.202Z,100648.03
2019-02-26T05:13:54.183Z,100641.07
2019-02-26T05:14:33.287Z,100631.63
2019-02-26T05:15:18.059Z,100633.44
2019-02-26T05:15:52.857Z,100635.31
2019-02-26T05:16:32.694Z,100633.70
2019-02-26T05:17:10.859Z,100629.25
2019-02-26T05:17:49.787Z,100627.31
2019-02-26T05:18:28.532Z,100625.24
2019-02-26T05:19:05.230Z,100622.70
2019-02-26T05:19:48.260Z,100623.94
2019-02-26T05:20:23.407Z,100617.64
2019-02-26T05:21:04.169Z,100620.11
2019-02-26T05:21:38.478Z,100621.38
2019-02-26T05:22:15.287Z,100614.41
2019-02-26T05:22:54.758Z,100616.88
2019-02-26T05:23:34.440Z,100617.67
2019-02-26T05:24:13.071Z,100613.13
2019-02-26T05:24:52.802Z,100621.43
2019-02-26T05:25:31.487Z,100605.50
2019-02-26T05:26:11.667Z,100610.53
2019-02-26T05:26:46.751Z,100608.28
2019-02-26T05:27:24.959Z,100605.98
2019-02-26T05:28:03.670Z,100600.73
2019-02-26T05:28:47.018Z,100601.44
2019-02-26T05:29:22.922Z,100610.09
2019-02-26T05:30:00.031Z,100601.18
2019-02-26T05:30:37.789Z,100599.68
2019-02-26T05:31:18.114Z,100605.23
2019-02-26T05:31:55.613Z,100601.13
2019-02-26T05:32:35.032Z,100602.05
2019-02-26T05:33:14.113Z,100593.70
2019-02-26T05:33:54.202Z,100599.09
2019-02-26T05:34:32.162Z,100598.16
2019-02-26T05:35:08.929Z,100599.09
2019-02-26T05:35:46.244Z,100597.02
2019-02-26T05:36:28.228Z,100590.97
2019-02-26T05:37:08.181Z,100594.94
2019-02-26T05:37:47.516Z,100595.14
2019-02-26T05:38:49.297Z,100591.04
2019-02-26T05:39:28.822Z,100587.16
2019-02-26T05:40:09.057Z,100592.41
2019-02-26T05:40:48.194Z,100583.98
2019-02-26T05:41:25.689Z,100588.88
2019-02-26T05:42:04.069Z,100578.29
2019-02-26T05:42:40.974Z,100582.31
2019-02-26T05:43:20.403Z,100589.15
2019-02-26T05:44:03.495Z,100589.47
2019-02-26T05:44:39.705Z,100581.97
2019-02-26T05:45:16.646Z,100589.83
2019-02-26T05:45:54.861Z,100586.73
2019-02-26T05:46:34.094Z,100585.14
2019-02-26T05:47:13.004Z,100592.20
2019-02-26T05:47:51.258Z,100584.47
2019-02-26T05:48:31.444Z,100576.27
2019-02-26T05:49:13.239Z,100581.59
2019-02-26T05:49:48.104Z,100575.55
2019-02-26T05:50:24.870Z,100579.00
2019-02-26T05:51:03.592Z,100576.59
2019-02-26T05:51:39.510Z,100576.05
2019-02-26T05:52:35.866Z,100573.75
2019-02-26T05:53:18.479Z,100571.23
2019-02-26T05:53:56.061Z,100572.81
2019-02-26T05:54:32.283Z,100573.48
2019-02-26T05:55:08.747Z,100571.40
2019-02-26T05:55:48.539Z,100572.05
2019-02-26T05:56:27.430Z,100573.51
2019-02-26T05:57:06.570Z,100571.07
2019-02-26T05:57:43.682Z,100569.02
2019-02-26T05:58:21.503Z,100566.15
2019-02-26T05:59:02.090Z,100571.07
2019-02-26T05:59:35.881Z,100571.32
2019-02-26T06:00:18.306Z,100568.66
2019-02-26T06:00:55.063Z,100569.81
2019-02-26T06:01:31.808Z,100559.74
2019-02-26T06:02:21.641Z,100563.71
2019-02-26T06:02:59.233Z,100564.50
2019-02-26T06:03:38.499Z,100561.63
2019-02-26T06:04:23.386Z,100564.70
2019-02-26T06:04:59.951Z,100557.93
2019-02-26T06:05:41.184Z,100562.25
2019-02-26T06:06:15.655Z,100560.63
2019-02-26T06:06:55.532Z,100561.07
2019-02-26T06:07:33.365Z,100558.55
2019-02-26T06:08:11.676Z,100556.03
2019-02-26T06:08:49.395Z,100556.96
2019-02-26T06:09:28.546Z,100552.34
2019-02-26T06:10:07.074Z,100545.14
2019-02-26T06:10:55.813Z,100540.13
2019-02-26T06:11:36.329Z,100541.64
2019-02-26T06:12:12.755Z,100542.66
2019-02-26T06:12:49.156Z,100536.13
2019-02-26T06:13:29.167Z,100539.48
2019-02-26T06:14:20.156Z,100539.27
2019-02-26T06:15:02.077Z,100535.73
2019-02-26T06:15:38.541Z,100525.47
2019-02-26T06:16:14.931Z,100533.03
2019-02-26T06:16:55.081Z,100529.00
2019-02-26T06:17:31.327Z,100531.05
2019-02-26T06:18:07.823Z,100528.31
2019-02-26T06:18:46.396Z,100526.02
2019-02-26T06:19:37.733Z,100524.97
2019-02-26T06:20:19.230Z,100523.23
2019-02-26T06:20:56.706Z,100521.38
2019-02-26T06:21:34.352Z,100523.89
2019-02-26T06:22:14.518Z,100516.11
2019-02-26T06:22:51.695Z,100516.19
2019-02-26T06:23:33.804Z,100516.04
2019-02-26T06:24:10.506Z,100516.11
2019-02-26T06:24:49.288Z,100517.70
2019-02-26T06:25:25.795Z,100522.60
2019-02-26T06:26:04.910Z,100517.70
2019-02-26T06:26:45.524Z,100520.18
2019-02-26T06:27:27.271Z,100517.12
2019-02-26T06:28:06.945Z,100515.61
2019-02-26T06:28:43.470Z,100516.62
2019-02-26T06:29:22.267Z,100508.86
2019-02-26T06:29:58.163Z,100516.72
2019-02-26T06:30:35.197Z,100510.92
2019-02-26T06:31:22.096Z,100512.19
2019-02-26T06:32:09.628Z,100507.03
2019-02-26T06:32:47.141Z,100500.77
2019-02-26T06:33:23.626Z,100501.41
2019-02-26T06:34:03.523Z,100503.00
2019-02-26T06:34:38.120Z,100499.61
2019-02-26T06:35:17.037Z,100497.30
2019-02-26T06:35:59.015Z,100496.37
2019-02-26T06:36:36.316Z,100491.90
2019-02-26T06:37:23.430Z,100498.39
2019-02-26T06:38:02.125Z,100492.19
2019-02-26T06:38:42.847Z,100493.88
2019-02-26T06:39:22.244Z,100495.48
2019-02-26T06:40:02.486Z,100487.02
2019-02-26T06:40:39.315Z,100487.43
2019-02-26T06:41:16.366Z,100484.13
2019-02-26T06:41:57.606Z,100480.76
2019-02-26T06:42:37.942Z,100480.62
2019-02-26T06:43:39.619Z,100491.36
2019-02-26T06:44:14.194Z,100484.94
2019-02-26T06:44:51.419Z,100489.56
2019-02-26T06:45:27.914Z,100484.42
2019-02-26T06:46:05.363Z,100483.05
2019-02-26T06:46:42.439Z,100484.15
2019-02-26T06:47:18.921Z,100487.13
2019-02-26T06:47:56.410Z,100479.80
2019-02-26T06:48:33.072Z,100486.14
2019-02-26T06:49:09.214Z,100482.47
2019-02-26T06:49:46.145Z,100484.77
2019-02-26T06:50:23.684Z,100479.80
2019-02-26T06:51:02.689Z,100482.78
2019-02-26T06:51:44.984Z,100478.05
2019-02-26T06:52:23.056Z,100478.54
2019-02-26T06:52:59.399Z,100477.14
2019-02-26T06:53:35.711Z,100480.45
2019-02-26T06:54:19.631Z,100478.54
2019-02-26T06:54:58.091Z,100475.64
2019-02-26T06:55:41.663Z,100477.38
2019-02-26T06:56:18.385Z,100477.56
2019-02-26T06:56:55.476Z,100474.45
2019-02-26T06:57:31.780Z,100473.31
2019-02-26T06:58:31.520Z,100477.41
2019-02-26T06:59:34.477Z,100479.72
2019-02-26T07:00:21.248Z,100475.14
2019-02-26T07:00:58.087Z,100474.07
2019-02-26T07:01:39.640Z,100469.69
2019-02-26T07:02:17.093Z,100476.96
2019-02-26T07:03:02.645Z,100474.51
2019-02-26T07:03:44.386Z,100474.48
2019-02-26T07:04:29.406Z,100476.16
2019-02-26T07:05:05.330Z,100470.83
2019-02-26T07:06:27.719Z,100468.48
2019-02-26T07:07:06.814Z,100469.72
2019-02-26T07:07:45.539Z,100473.14
2019-02-26T07:08:24.188Z,100469.30
2019-02-26T07:09:02.279Z,100469.98
2019-02-26T07:09:41.934Z,100469.76
2019-02-26T07:10:26.007Z,100471.37
2019-02-26T07:11:03.926Z,100474.32
2019-02-26T07:11:43.048Z,100472.52
2019-02-26T07:12:23.936Z,100467.06
2019-02-26T07:13:08.853Z,100466.84
2019-02-26T07:13:45.990Z,100469.12
2019-02-26T07:14:27.202Z,100464.91
2019-02-26T07:15:05.975Z,100466.05
2019-02-26T07:16:05.297Z,100467.65
2019-02-26T07:16:41.623Z,100464.58
2019-02-26T07:17:21.096Z,100460.48
2019-02-26T07:18:02.238Z,100460.03
2019-02-26T07:18:41.237Z,100458.41
2019-02-26T07:19:18.168Z,100454.58
2019-02-26T07:19:55.923Z,100457.98
2019-02-26T07:20:34.332Z,100455.94
2019-02-26T07:21:13.617Z,100455.91
2019-02-26T07:21:52.974Z,100453.28
2019-02-26T07:22:51.609Z,100448.06
2019-02-26T07:23:29.808Z,100441.79
2019-02-26T07:24:07.703Z,100448.14
2019-02-26T07:24:48.299Z,100447.23
2019-02-26T07:25:28.233Z,100445.99
2019-02-26T07:26:04.799Z,100444.05
2019-02-26T07:26:46.377Z,100440.11
2019-02-26T07:27:26.484Z,100443.50
2019-02-26T07:28:06.750Z,100438.28
2019-02-26T07:28:48.717Z,100436.58
2019-02-26T07:29:39.462Z,100444.30
2019-02-26T07:30:16.094Z,100437.50
2019-02-26T07:30:57.042Z,100439.33
2019-02-26T07:31:44.001Z,100439.11
2019-02-26T07:32:28.417Z,100434.55
2019-02-26T07:33:05.357Z,100442.51
2019-02-26T07:33:44.942Z,100430.92
2019-02-26T07:34:22.788Z,100429.11
2019-02-26T07:35:24.409Z,100429.00
2019-02-26T07:36:04.123Z,100426.17
2019-02-26T07:36:43.267Z,100427.05
2019-02-26T07:37:22.649Z,100425.83
2019-02-26T07:38:01.736Z,100424.34
2019-02-26T07:38:41.565Z,100422.97
2019-02-26T07:39:32.358Z,100421.36
2019-02-26T07:40:15.238Z,100423.86
2019-02-26T07:40:51.070Z,100420.57
2019-02-26T07:41:34.544Z,100420.35
2019-02-26T07:42:11.504Z,100420.70
2019-02-26T07:42:49.984Z,100417.97
2019-02-26T07:43:28.808Z,100416.13
2019-02-26T07:44:11.464Z,100415.81
2019-02-26T07:44:46.554Z,100419.34
2019-02-26T07:45:30.390Z,100417.04
2019-02-26T07:46:12.142Z,100411.14
2019-02-26T07:46:48.581Z,100411.39
2019-02-26T07:47:29.394Z,100406.83
2019-02-26T07:48:05.983Z,100406.59
2019-02-26T07:48:42.743Z,100409.81
2019-02-26T07:49:19.996Z,100412.75
2019-02-26T07:49:58.891Z,100408.76
2019-02-26T07:50:40.274Z,100402.05
2019-02-26T07:51:20.462Z,100409.89
2019-02-26T07:52:03.895Z,100403.84
2019-02-26T07:52:43.758Z,100399.28
2019-02-26T07:53:22.174Z,100404.40
2019-02-26T07:54:00.841Z,100405.20
2019-02-26T07:54:40.482Z,100402.47
2019-02-26T07:55:17.445Z,100404.28
2019-02-26T07:55:56.848Z,100402.66
2019-02-26T07:56:34.491Z,100401.30
2019-02-26T07:57:11.145Z,100396.16
2019-02-26T07:57:50.703Z,100400.09
2019-02-26T07:58:30.891Z,100392.22
2019-02-26T07:59:09.814Z,100392.78
2019-02-26T07:59:50.142Z,100389.44
2019-02-26T08:00:30.550Z,100389.88
2019-02-26T08:01:07.240Z,100389.30
2019-02-26T08:01:45.315Z,100391.33
2019-02-26T08:02:26.066Z,100385.95
2019-02-26T08:03:24.803Z,100387.00
2019-02-26T08:04:02.389Z,100392.86
2019-02-26T08:04:39.485Z,100391.66
2019-02-26T08:05:21.211Z,100386.73
2019-02-26T08:05:59.300Z,100390.58
2019-02-26T08:06:36.176Z,100387.80
2019-02-26T08:07:13.625Z,100389.28
2019-02-26T08:07:51.978Z,100382.66
2019-02-26T08:08:27.928Z,100382.89
2019-02-26T08:09:08.720Z,100392.47
2019-02-26T08:09:43.970Z,100388.87
2019-02-26T08:10:20.511Z,100388.20
2019-02-26T08:11:00.578Z,100386.63
2019-02-26T08:11:57.665Z,100388.91
2019-02-26T08:12:35.573Z,100390.03
2019-02-26T08:13:12.191Z,100386.42
2019-02-26T08:13:54.222Z,100385.72
2019-02-26T08:14:30.654Z,100389.57
2019-02-26T08:15:10.406Z,100381.68
2019-02-26T08:15:49.343Z,100385.42
2019-02-26T08:16:51.407Z,100375.69